sensor_id;sensor_type;location;lat;lon;timestamp;temperature;humidity
19803;DHT22;66074;50.764;6.090;2023-04-24T00:01:48;11.50;94.20
19803;DHT22;66074;50.764;6.090;2023-04-24T00:04:13;11.50;94.00
19803;DHT22;66074;50.764;6.090;2023-04-24T00:06:42;11.50;94.00
19803;DHT22;66074;50.764;6.090;2023-04-24T00:09:08;11.50;93.90
19803;DHT22;66074;50.764;6.090;2023-04-24T00:11:35;11.50;93.90
19803;DHT22;66074;50.764;6.090;2023-04-24T00:14:01;11.50;93.90
19803;DHT22;66074;50.764;6.090;2023-04-24T00:16:27;11.50;93.90
19803;DHT22;66074;50.764;6.090;2023-04-24T00:18:53;11.40;93.90
19803;DHT22;66074;50.764;6.090;2023-04-24T00:21:19;11.20;93.50
19803;DHT22;66074;50.764;6.090;2023-04-24T00:23:44;11.10;93.50
19803;DHT22;66074;50.764;6.090;2023-04-24T00:26:10;11.10;93.60
19803;DHT22;66074;50.764;6.090;2023-04-24T00:28:36;10.90;93.50
19803;DHT22;66074;50.764;6.090;2023-04-24T00:31:01;10.90;93.40
19803;DHT22;66074;50.764;6.090;2023-04-24T00:33:27;10.80;93.40
19803;DHT22;66074;50.764;6.090;2023-04-24T00:35:53;10.80;93.40
19803;DHT22;66074;50.764;6.090;2023-04-24T00:38:18;10.70;93.30
19803;DHT22;66074;50.764;6.090;2023-04-24T00:40:44;10.70;93.30
19803;DHT22;66074;50.764;6.090;2023-04-24T00:43:10;10.60;93.20
19803;DHT22;66074;50.764;6.090;2023-04-24T00:45:37;10.50;93.20
19803;DHT22;66074;50.764;6.090;2023-04-24T00:48:03;10.50;93.20
19803;DHT22;66074;50.764;6.090;2023-04-24T00:50:30;10.40;93.20
19803;DHT22;66074;50.764;6.090;2023-04-24T00:52:56;10.40;93.20
19803;DHT22;66074;50.764;6.090;2023-04-24T00:55:22;10.40;93.20
19803;DHT22;66074;50.764;6.090;2023-04-24T00:57:48;10.30;93.20
19803;DHT22;66074;50.764;6.090;2023-04-24T01:00:15;10.40;93.30
19803;DHT22;66074;50.764;6.090;2023-04-24T01:02:43;10.30;93.30
19803;DHT22;66074;50.764;6.090;2023-04-24T01:05:11;10.40;93.30
19803;DHT22;66074;50.764;6.090;2023-04-24T01:07:39;10.40;93.30
19803;DHT22;66074;50.764;6.090;2023-04-24T01:10:06;10.40;93.30
19803;DHT22;66074;50.764;6.090;2023-04-24T01:12:33;10.40;93.40
19803;DHT22;66074;50.764;6.090;2023-04-24T01:14:59;10.40;93.40
19803;DHT22;66074;50.764;6.090;2023-04-24T01:17:24;10.40;93.40
19803;DHT22;66074;50.764;6.090;2023-04-24T01:19:50;10.40;93.40
19803;DHT22;66074;50.764;6.090;2023-04-24T01:22:19;10.30;93.40
19803;DHT22;66074;50.764;6.090;2023-04-24T01:24:46;10.30;93.40
19803;DHT22;66074;50.764;6.090;2023-04-24T01:27:12;10.40;93.40
19803;DHT22;66074;50.764;6.090;2023-04-24T01:29:38;10.40;93.40
19803;DHT22;66074;50.764;6.090;2023-04-24T01:32:04;10.50;93.40
19803;DHT22;66074;50.764;6.090;2023-04-24T01:34:30;10.50;93.40
19803;DHT22;66074;50.764;6.090;2023-04-24T01:36:56;10.50;93.30
19803;DHT22;66074;50.764;6.090;2023-04-24T01:39:22;10.50;93.30
19803;DHT22;66074;50.764;6.090;2023-04-24T01:41:51;10.50;93.40
19803;DHT22;66074;50.764;6.090;2023-04-24T01:44:18;10.50;93.30
19803;DHT22;66074;50.764;6.090;2023-04-24T01:46:43;10.50;93.30
19803;DHT22;66074;50.764;6.090;2023-04-24T01:49:10;10.50;93.30
19803;DHT22;66074;50.764;6.090;2023-04-24T01:51:36;10.50;93.20
19803;DHT22;66074;50.764;6.090;2023-04-24T01:54:02;10.50;93.30
19803;DHT22;66074;50.764;6.090;2023-04-24T01:56:29;10.50;93.30
19803;DHT22;66074;50.764;6.090;2023-04-24T01:58:56;10.50;93.30
19803;DHT22;66074;50.764;6.090;2023-04-24T02:01:23;10.40;93.20
19803;DHT22;66074;50.764;6.090;2023-04-24T02:03:49;10.50;93.30
19803;DHT22;66074;50.764;6.090;2023-04-24T02:06:15;10.50;93.30
19803;DHT22;66074;50.764;6.090;2023-04-24T02:08:41;10.50;93.30
19803;DHT22;66074;50.764;6.090;2023-04-24T02:11:08;10.50;93.30
19803;DHT22;66074;50.764;6.090;2023-04-24T02:13:34;10.40;93.30
19803;DHT22;66074;50.764;6.090;2023-04-24T02:15:59;10.40;93.20
19803;DHT22;66074;50.764;6.090;2023-04-24T02:18:25;10.40;93.60
19803;DHT22;66074;50.764;6.090;2023-04-24T02:20:51;10.50;93.30
19803;DHT22;66074;50.764;6.090;2023-04-24T02:23:16;10.50;93.30
19803;DHT22;66074;50.764;6.090;2023-04-24T02:25:42;10.40;93.30
19803;DHT22;66074;50.764;6.090;2023-04-24T02:28:08;10.50;93.30
19803;DHT22;66074;50.764;6.090;2023-04-24T02:30:33;10.40;93.30
19803;DHT22;66074;50.764;6.090;2023-04-24T02:32:59;10.40;93.30
19803;DHT22;66074;50.764;6.090;2023-04-24T02:35:25;10.40;93.30
19803;DHT22;66074;50.764;6.090;2023-04-24T02:37:51;10.40;93.40
19803;DHT22;66074;50.764;6.090;2023-04-24T02:40:16;10.30;93.40
19803;DHT22;66074;50.764;6.090;2023-04-24T02:42:42;10.40;93.40
19803;DHT22;66074;50.764;6.090;2023-04-24T02:45:08;10.40;93.40
19803;DHT22;66074;50.764;6.090;2023-04-24T02:47:34;10.40;93.50
19803;DHT22;66074;50.764;6.090;2023-04-24T02:50:00;10.40;93.50
19803;DHT22;66074;50.764;6.090;2023-04-24T02:52:25;10.40;93.80
19803;DHT22;66074;50.764;6.090;2023-04-24T02:54:51;10.30;93.50
19803;DHT22;66074;50.764;6.090;2023-04-24T02:57:16;10.30;93.50
19803;DHT22;66074;50.764;6.090;2023-04-24T02:59:42;10.30;93.50
19803;DHT22;66074;50.764;6.090;2023-04-24T03:02:08;10.30;93.50
19803;DHT22;66074;50.764;6.090;2023-04-24T03:04:33;10.20;93.50
19803;DHT22;66074;50.764;6.090;2023-04-24T03:06:59;10.20;93.60
19803;DHT22;66074;50.764;6.090;2023-04-24T03:09:26;10.20;93.60
19803;DHT22;66074;50.764;6.090;2023-04-24T03:11:52;10.20;93.60
19803;DHT22;66074;50.764;6.090;2023-04-24T03:14:17;10.30;93.60
19803;DHT22;66074;50.764;6.090;2023-04-24T03:16:43;10.30;93.70
19803;DHT22;66074;50.764;6.090;2023-04-24T03:19:08;10.30;93.70
19803;DHT22;66074;50.764;6.090;2023-04-24T03:21:34;10.30;93.80
19803;DHT22;66074;50.764;6.090;2023-04-24T03:24:01;10.30;93.80
19803;DHT22;66074;50.764;6.090;2023-04-24T03:26:27;10.30;93.90
19803;DHT22;66074;50.764;6.090;2023-04-24T03:28:53;10.20;93.90
19803;DHT22;66074;50.764;6.090;2023-04-24T03:31:18;10.10;94.00
19803;DHT22;66074;50.764;6.090;2023-04-24T03:33:46;10.10;93.90
19803;DHT22;66074;50.764;6.090;2023-04-24T03:36:12;10.10;94.00
19803;DHT22;66074;50.764;6.090;2023-04-24T03:38:37;10.10;94.30
19803;DHT22;66074;50.764;6.090;2023-04-24T03:41:03;10.10;94.10
19803;DHT22;66074;50.764;6.090;2023-04-24T03:43:29;10.00;94.10
19803;DHT22;66074;50.764;6.090;2023-04-24T03:45:54;10.00;94.20
19803;DHT22;66074;50.764;6.090;2023-04-24T03:48:20;10.00;94.30
19803;DHT22;66074;50.764;6.090;2023-04-24T03:50:46;9.90;94.80
19803;DHT22;66074;50.764;6.090;2023-04-24T03:53:11;9.90;94.80
19803;DHT22;66074;50.764;6.090;2023-04-24T03:55:37;9.80;94.90
19803;DHT22;66074;50.764;6.090;2023-04-24T03:58:03;9.80;94.80
19803;DHT22;66074;50.764;6.090;2023-04-24T04:00:28;9.90;94.80
19803;DHT22;66074;50.764;6.090;2023-04-24T04:02:58;9.90;95.10
19803;DHT22;66074;50.764;6.090;2023-04-24T04:05:24;9.80;95.10
19803;DHT22;66074;50.764;6.090;2023-04-24T04:07:49;9.90;95.10
19803;DHT22;66074;50.764;6.090;2023-04-24T04:10:15;9.90;95.20
19803;DHT22;66074;50.764;6.090;2023-04-24T04:12:42;9.80;95.30
19803;DHT22;66074;50.764;6.090;2023-04-24T04:15:08;9.80;95.50
19803;DHT22;66074;50.764;6.090;2023-04-24T04:17:34;9.80;95.50
19803;DHT22;66074;50.764;6.090;2023-04-24T04:19:59;9.80;95.50
19803;DHT22;66074;50.764;6.090;2023-04-24T04:22:25;9.70;95.60
19803;DHT22;66074;50.764;6.090;2023-04-24T04:24:51;9.80;95.70
19803;DHT22;66074;50.764;6.090;2023-04-24T04:27:17;9.80;95.70
19803;DHT22;66074;50.764;6.090;2023-04-24T04:29:44;9.80;95.80
19803;DHT22;66074;50.764;6.090;2023-04-24T04:32:10;9.80;96.00
19803;DHT22;66074;50.764;6.090;2023-04-24T04:34:35;9.80;96.00
19803;DHT22;66074;50.764;6.090;2023-04-24T04:37:03;9.80;96.20
19803;DHT22;66074;50.764;6.090;2023-04-24T04:39:29;9.80;96.30
19803;DHT22;66074;50.764;6.090;2023-04-24T04:41:55;9.60;96.30
19803;DHT22;66074;50.764;6.090;2023-04-24T04:44:21;9.80;96.60
19803;DHT22;66074;50.764;6.090;2023-04-24T04:46:47;9.70;96.40
19803;DHT22;66074;50.764;6.090;2023-04-24T04:49:13;9.70;96.50
19803;DHT22;66074;50.764;6.090;2023-04-24T04:51:42;9.70;96.50
19803;DHT22;66074;50.764;6.090;2023-04-24T04:54:07;9.60;96.50
19803;DHT22;66074;50.764;6.090;2023-04-24T04:56:33;9.60;96.70
19803;DHT22;66074;50.764;6.090;2023-04-24T04:58:59;9.60;96.80
19803;DHT22;66074;50.764;6.090;2023-04-24T05:01:24;9.60;97.00
19803;DHT22;66074;50.764;6.090;2023-04-24T05:03:52;9.60;97.10
19803;DHT22;66074;50.764;6.090;2023-04-24T05:06:19;9.50;97.00
19803;DHT22;66074;50.764;6.090;2023-04-24T05:08:45;9.50;97.30
19803;DHT22;66074;50.764;6.090;2023-04-24T05:11:10;9.50;97.00
19803;DHT22;66074;50.764;6.090;2023-04-24T05:13:36;9.50;97.00
19803;DHT22;66074;50.764;6.090;2023-04-24T05:16:01;9.50;97.10
19803;DHT22;66074;50.764;6.090;2023-04-24T05:18:27;9.50;97.20
19803;DHT22;66074;50.764;6.090;2023-04-24T05:20:53;9.50;97.40
19803;DHT22;66074;50.764;6.090;2023-04-24T05:23:18;9.50;97.10
19803;DHT22;66074;50.764;6.090;2023-04-24T05:25:44;9.60;96.90
19803;DHT22;66074;50.764;6.090;2023-04-24T05:28:10;9.60;97.00
19803;DHT22;66074;50.764;6.090;2023-04-24T05:30:35;9.60;97.20
19803;DHT22;66074;50.764;6.090;2023-04-24T05:33:01;9.70;97.10
19803;DHT22;66074;50.764;6.090;2023-04-24T05:35:27;9.70;97.30
19803;DHT22;66074;50.764;6.090;2023-04-24T05:37:52;9.60;97.60
19803;DHT22;66074;50.764;6.090;2023-04-24T05:40:18;9.60;97.70
19803;DHT22;66074;50.764;6.090;2023-04-24T05:42:44;9.60;97.70
19803;DHT22;66074;50.764;6.090;2023-04-24T05:45:09;9.60;97.90
19803;DHT22;66074;50.764;6.090;2023-04-24T05:47:43;9.50;97.80
19803;DHT22;66074;50.764;6.090;2023-04-24T05:50:10;9.40;97.70
19803;DHT22;66074;50.764;6.090;2023-04-24T05:52:35;9.40;98.00
19803;DHT22;66074;50.764;6.090;2023-04-24T05:55:01;9.40;98.30
19803;DHT22;66074;50.764;6.090;2023-04-24T05:57:27;9.40;98.40
19803;DHT22;66074;50.764;6.090;2023-04-24T05:59:52;9.40;98.40
19803;DHT22;66074;50.764;6.090;2023-04-24T06:02:18;9.40;98.60
19803;DHT22;66074;50.764;6.090;2023-04-24T06:04:44;9.30;98.70
19803;DHT22;66074;50.764;6.090;2023-04-24T06:07:11;9.40;98.80
19803;DHT22;66074;50.764;6.090;2023-04-24T06:09:36;9.40;98.80
19803;DHT22;66074;50.764;6.090;2023-04-24T06:12:02;9.40;99.00
19803;DHT22;66074;50.764;6.090;2023-04-24T06:14:28;9.40;99.00
19803;DHT22;66074;50.764;6.090;2023-04-24T06:16:54;9.40;99.10
19803;DHT22;66074;50.764;6.090;2023-04-24T06:19:19;9.50;99.30
19803;DHT22;66074;50.764;6.090;2023-04-24T06:21:45;9.40;99.20
19803;DHT22;66074;50.764;6.090;2023-04-24T06:24:13;9.40;99.50
19803;DHT22;66074;50.764;6.090;2023-04-24T06:26:39;9.40;99.20
19803;DHT22;66074;50.764;6.090;2023-04-24T06:29:06;9.50;98.80
19803;DHT22;66074;50.764;6.090;2023-04-24T06:31:32;9.50;99.30
19803;DHT22;66074;50.764;6.090;2023-04-24T06:34:02;9.50;99.40
19803;DHT22;66074;50.764;6.090;2023-04-24T06:36:28;9.40;99.30
19803;DHT22;66074;50.764;6.090;2023-04-24T06:38:54;9.50;99.50
19803;DHT22;66074;50.764;6.090;2023-04-24T06:41:20;9.40;99.70
19803;DHT22;66074;50.764;6.090;2023-04-24T06:43:45;9.40;99.60
19803;DHT22;66074;50.764;6.090;2023-04-24T06:46:11;9.40;99.50
19803;DHT22;66074;50.764;6.090;2023-04-24T06:48:37;9.40;99.60
19803;DHT22;66074;50.764;6.090;2023-04-24T06:51:03;9.40;99.50
19803;DHT22;66074;50.764;6.090;2023-04-24T06:53:28;9.30;99.50
19803;DHT22;66074;50.764;6.090;2023-04-24T06:55:54;9.30;99.80
19803;DHT22;66074;50.764;6.090;2023-04-24T06:58:20;9.20;99.60
19803;DHT22;66074;50.764;6.090;2023-04-24T07:00:46;9.30;99.60
19803;DHT22;66074;50.764;6.090;2023-04-24T07:03:11;9.30;99.70
19803;DHT22;66074;50.764;6.090;2023-04-24T07:05:37;9.30;99.80
19803;DHT22;66074;50.764;6.090;2023-04-24T07:08:03;9.20;99.90
19803;DHT22;66074;50.764;6.090;2023-04-24T07:10:29;9.20;99.70
19803;DHT22;66074;50.764;6.090;2023-04-24T07:12:55;9.20;99.70
19803;DHT22;66074;50.764;6.090;2023-04-24T07:15:24;9.20;99.90
19803;DHT22;66074;50.764;6.090;2023-04-24T07:17:49;9.30;99.90
19803;DHT22;66074;50.764;6.090;2023-04-24T07:20:15;9.20;99.70
19803;DHT22;66074;50.764;6.090;2023-04-24T07:22:41;9.20;99.90
19803;DHT22;66074;50.764;6.090;2023-04-24T07:25:06;9.10;99.90
19803;DHT22;66074;50.764;6.090;2023-04-24T07:27:33;9.20;99.90
19803;DHT22;66074;50.764;6.090;2023-04-24T07:29:59;9.10;99.90
19803;DHT22;66074;50.764;6.090;2023-04-24T07:32:25;9.10;99.90
19803;DHT22;66074;50.764;6.090;2023-04-24T07:34:50;9.10;99.90
19803;DHT22;66074;50.764;6.090;2023-04-24T07:37:16;9.10;99.90
19803;DHT22;66074;50.764;6.090;2023-04-24T07:39:42;9.10;99.90
19803;DHT22;66074;50.764;6.090;2023-04-24T07:42:07;9.10;99.90
19803;DHT22;66074;50.764;6.090;2023-04-24T07:44:33;9.10;99.90
19803;DHT22;66074;50.764;6.090;2023-04-24T07:46:59;9.20;99.90
19803;DHT22;66074;50.764;6.090;2023-04-24T07:49:25;9.20;99.90
19803;DHT22;66074;50.764;6.090;2023-04-24T07:51:50;9.20;99.90
19803;DHT22;66074;50.764;6.090;2023-04-24T07:54:16;9.20;99.90
19803;DHT22;66074;50.764;6.090;2023-04-24T07:56:43;9.30;99.90
19803;DHT22;66074;50.764;6.090;2023-04-24T07:59:10;9.10;99.90
19803;DHT22;66074;50.764;6.090;2023-04-24T08:01:35;9.20;99.90
19803;DHT22;66074;50.764;6.090;2023-04-24T08:04:01;9.20;99.90
19803;DHT22;66074;50.764;6.090;2023-04-24T08:06:27;9.30;99.90
19803;DHT22;66074;50.764;6.090;2023-04-24T08:08:59;9.30;99.90
19803;DHT22;66074;50.764;6.090;2023-04-24T08:11:25;9.40;99.90
19803;DHT22;66074;50.764;6.090;2023-04-24T08:13:51;9.40;99.90
19803;DHT22;66074;50.764;6.090;2023-04-24T08:16:17;9.40;99.90
19803;DHT22;66074;50.764;6.090;2023-04-24T08:18:42;9.40;99.90
19803;DHT22;66074;50.764;6.090;2023-04-24T08:21:08;9.60;99.90
19803;DHT22;66074;50.764;6.090;2023-04-24T08:23:33;9.60;99.90
19803;DHT22;66074;50.764;6.090;2023-04-24T08:25:59;9.60;99.90
19803;DHT22;66074;50.764;6.090;2023-04-24T08:28:25;9.50;99.90
19803;DHT22;66074;50.764;6.090;2023-04-24T08:30:51;9.40;99.90
19803;DHT22;66074;50.764;6.090;2023-04-24T08:33:21;9.50;99.90
19803;DHT22;66074;50.764;6.090;2023-04-24T08:35:46;9.60;99.90
19803;DHT22;66074;50.764;6.090;2023-04-24T08:38:12;9.60;99.90
19803;DHT22;66074;50.764;6.090;2023-04-24T08:40:38;9.60;99.90
19803;DHT22;66074;50.764;6.090;2023-04-24T08:43:04;9.60;99.90
19803;DHT22;66074;50.764;6.090;2023-04-24T08:45:30;9.60;99.90
19803;DHT22;66074;50.764;6.090;2023-04-24T08:47:57;9.70;99.90
19803;DHT22;66074;50.764;6.090;2023-04-24T08:50:24;9.70;99.90
19803;DHT22;66074;50.764;6.090;2023-04-24T08:52:51;9.70;99.90
19803;DHT22;66074;50.764;6.090;2023-04-24T08:55:19;9.60;99.90
19803;DHT22;66074;50.764;6.090;2023-04-24T08:57:48;9.60;99.90
19803;DHT22;66074;50.764;6.090;2023-04-24T09:00:15;9.60;99.90
19803;DHT22;66074;50.764;6.090;2023-04-24T09:02:44;9.60;99.90
19803;DHT22;66074;50.764;6.090;2023-04-24T09:05:12;9.60;99.90
19803;DHT22;66074;50.764;6.090;2023-04-24T09:07:39;9.60;99.90
19803;DHT22;66074;50.764;6.090;2023-04-24T09:10:07;9.60;99.90
19803;DHT22;66074;50.764;6.090;2023-04-24T09:12:34;9.60;99.90
19803;DHT22;66074;50.764;6.090;2023-04-24T09:15:01;9.50;99.90
19803;DHT22;66074;50.764;6.090;2023-04-24T09:17:29;9.50;99.90
19803;DHT22;66074;50.764;6.090;2023-04-24T09:19:55;9.60;99.90
19803;DHT22;66074;50.764;6.090;2023-04-24T09:22:21;9.60;99.90
19803;DHT22;66074;50.764;6.090;2023-04-24T09:24:47;9.70;99.90
19803;DHT22;66074;50.764;6.090;2023-04-24T09:27:13;9.80;99.90
19803;DHT22;66074;50.764;6.090;2023-04-24T09:29:54;10.00;99.90
19803;DHT22;66074;50.764;6.090;2023-04-24T09:32:22;10.10;99.90
19803;DHT22;66074;50.764;6.090;2023-04-24T09:34:48;10.20;99.90
19803;DHT22;66074;50.764;6.090;2023-04-24T09:37:29;10.30;99.90
19803;DHT22;66074;50.764;6.090;2023-04-24T09:42:34;10.60;99.90
19803;DHT22;66074;50.764;6.090;2023-04-24T09:44:59;10.60;99.90
19803;DHT22;66074;50.764;6.090;2023-04-24T09:47:25;10.70;99.90
19803;DHT22;66074;50.764;6.090;2023-04-24T09:49:51;10.90;99.90
19803;DHT22;66074;50.764;6.090;2023-04-24T09:52:22;10.80;99.80
19803;DHT22;66074;50.764;6.090;2023-04-24T09:54:53;10.80;99.50
19803;DHT22;66074;50.764;6.090;2023-04-24T09:57:19;10.70;99.40
19803;DHT22;66074;50.764;6.090;2023-04-24T09:59:46;10.90;99.70
19803;DHT22;66074;50.764;6.090;2023-04-24T10:02:19;11.10;99.60
19803;DHT22;66074;50.764;6.090;2023-04-24T10:04:57;11.20;99.00
19803;DHT22;66074;50.764;6.090;2023-04-24T10:07:27;11.40;98.50
19803;DHT22;66074;50.764;6.090;2023-04-24T10:09:54;11.40;98.90
19803;DHT22;66074;50.764;6.090;2023-04-24T10:12:19;11.50;98.90
19803;DHT22;66074;50.764;6.090;2023-04-24T10:14:46;11.60;98.30
19803;DHT22;66074;50.764;6.090;2023-04-24T10:17:12;11.60;98.40
19803;DHT22;66074;50.764;6.090;2023-04-24T10:19:40;11.80;98.60
19803;DHT22;66074;50.764;6.090;2023-04-24T10:22:07;11.90;98.30
19803;DHT22;66074;50.764;6.090;2023-04-24T10:24:33;12.00;98.10
19803;DHT22;66074;50.764;6.090;2023-04-24T10:27:02;12.10;98.10
19803;DHT22;66074;50.764;6.090;2023-04-24T10:29:30;12.10;97.90
19803;DHT22;66074;50.764;6.090;2023-04-24T10:31:56;12.30;97.50
19803;DHT22;66074;50.764;6.090;2023-04-24T10:34:23;12.40;97.80
19803;DHT22;66074;50.764;6.090;2023-04-24T10:36:51;12.40;97.50
19803;DHT22;66074;50.764;6.090;2023-04-24T10:39:18;12.50;97.20
19803;DHT22;66074;50.764;6.090;2023-04-24T10:41:45;12.50;97.00
19803;DHT22;66074;50.764;6.090;2023-04-24T10:44:15;12.50;96.90
19803;DHT22;66074;50.764;6.090;2023-04-24T10:46:46;12.60;96.90
19803;DHT22;66074;50.764;6.090;2023-04-24T10:49:13;12.60;96.60
19803;DHT22;66074;50.764;6.090;2023-04-24T10:51:50;12.70;97.00
19803;DHT22;66074;50.764;6.090;2023-04-24T10:54:27;12.70;96.30
19803;DHT22;66074;50.764;6.090;2023-04-24T10:56:53;12.70;96.00
19803;DHT22;66074;50.764;6.090;2023-04-24T10:59:27;12.50;96.40
19803;DHT22;66074;50.764;6.090;2023-04-24T11:01:54;12.30;96.00
19803;DHT22;66074;50.764;6.090;2023-04-24T11:04:31;12.20;96.70
19803;DHT22;66074;50.764;6.090;2023-04-24T11:07:01;12.00;96.20
19803;DHT22;66074;50.764;6.090;2023-04-24T11:09:28;11.80;96.50
19803;DHT22;66074;50.764;6.090;2023-04-24T11:12:06;11.70;96.90
19803;DHT22;66074;50.764;6.090;2023-04-24T11:17:37;11.70;96.70
19803;DHT22;66074;50.764;6.090;2023-04-24T11:20:16;12.00;96.80
19803;DHT22;66074;50.764;6.090;2023-04-24T11:22:42;12.10;96.70
19803;DHT22;66074;50.764;6.090;2023-04-24T11:25:09;12.30;97.00
19803;DHT22;66074;50.764;6.090;2023-04-24T11:27:42;12.40;96.30
19803;DHT22;66074;50.764;6.090;2023-04-24T11:30:08;12.50;96.30
19803;DHT22;66074;50.764;6.090;2023-04-24T11:32:35;12.60;96.60
19803;DHT22;66074;50.764;6.090;2023-04-24T11:37:36;12.80;95.90
19803;DHT22;66074;50.764;6.090;2023-04-24T11:40:07;12.90;96.00
19803;DHT22;66074;50.764;6.090;2023-04-24T11:42:41;12.90;95.70
19803;DHT22;66074;50.764;6.090;2023-04-24T11:47:35;13.00;95.10
19803;DHT22;66074;50.764;6.090;2023-04-24T11:50:01;13.00;95.30
19803;DHT22;66074;50.764;6.090;2023-04-24T11:52:29;13.00;94.50
19803;DHT22;66074;50.764;6.090;2023-04-24T11:54:55;12.90;94.70
19803;DHT22;66074;50.764;6.090;2023-04-24T11:57:22;12.60;94.70
19803;DHT22;66074;50.764;6.090;2023-04-24T11:59:49;12.80;94.70
19803;DHT22;66074;50.764;6.090;2023-04-24T12:02:25;12.70;94.30
19803;DHT22;66074;50.764;6.090;2023-04-24T12:04:52;12.60;93.80
19803;DHT22;66074;50.764;6.090;2023-04-24T12:07:18;12.80;94.20
19803;DHT22;66074;50.764;6.090;2023-04-24T12:09:45;12.80;94.10
19803;DHT22;66074;50.764;6.090;2023-04-24T12:12:13;12.80;94.00
19803;DHT22;66074;50.764;6.090;2023-04-24T12:14:43;12.90;93.30
19803;DHT22;66074;50.764;6.090;2023-04-24T12:17:09;12.80;93.60
19803;DHT22;66074;50.764;6.090;2023-04-24T12:19:35;12.70;93.80
19803;DHT22;66074;50.764;6.090;2023-04-24T12:22:03;12.90;93.90
19803;DHT22;66074;50.764;6.090;2023-04-24T12:24:29;12.60;93.60
19803;DHT22;66074;50.764;6.090;2023-04-24T12:26:55;12.60;93.50
19803;DHT22;66074;50.764;6.090;2023-04-24T12:29:22;12.60;93.60
19803;DHT22;66074;50.764;6.090;2023-04-24T12:31:48;12.80;93.50
19803;DHT22;66074;50.764;6.090;2023-04-24T12:34:24;13.20;93.80
19803;DHT22;66074;50.764;6.090;2023-04-24T12:36:50;13.60;93.00
19803;DHT22;66074;50.764;6.090;2023-04-24T12:39:18;14.00;93.80
19803;DHT22;66074;50.764;6.090;2023-04-24T12:41:57;14.20;93.20
19803;DHT22;66074;50.764;6.090;2023-04-24T12:44:35;14.20;92.30
19803;DHT22;66074;50.764;6.090;2023-04-24T12:47:02;14.00;91.30
19803;DHT22;66074;50.764;6.090;2023-04-24T12:49:30;13.80;92.50
19803;DHT22;66074;50.764;6.090;2023-04-24T12:51:56;13.70;91.80
19803;DHT22;66074;50.764;6.090;2023-04-24T12:54:22;13.60;92.50
19803;DHT22;66074;50.764;6.090;2023-04-24T12:56:47;13.70;92.60
19803;DHT22;66074;50.764;6.090;2023-04-24T12:59:13;13.70;92.40
19803;DHT22;66074;50.764;6.090;2023-04-24T13:01:39;13.60;92.40
19803;DHT22;66074;50.764;6.090;2023-04-24T13:04:05;13.60;92.40
19803;DHT22;66074;50.764;6.090;2023-04-24T13:06:31;13.50;92.20
19803;DHT22;66074;50.764;6.090;2023-04-24T13:08:57;13.50;91.80
19803;DHT22;66074;50.764;6.090;2023-04-24T13:11:24;13.60;91.60
19803;DHT22;66074;50.764;6.090;2023-04-24T13:13:50;13.70;91.40
19803;DHT22;66074;50.764;6.090;2023-04-24T13:16:15;13.80;91.30
19803;DHT22;66074;50.764;6.090;2023-04-24T13:18:41;13.90;91.10
19803;DHT22;66074;50.764;6.090;2023-04-24T13:21:06;14.00;91.40
19803;DHT22;66074;50.764;6.090;2023-04-24T13:23:32;14.00;91.20
19803;DHT22;66074;50.764;6.090;2023-04-24T13:25:58;14.30;91.40
19803;DHT22;66074;50.764;6.090;2023-04-24T13:28:26;14.70;91.40
19803;DHT22;66074;50.764;6.090;2023-04-24T13:30:53;15.10;91.10
19803;DHT22;66074;50.764;6.090;2023-04-24T13:33:18;15.70;91.40
19803;DHT22;66074;50.764;6.090;2023-04-24T13:35:44;15.60;90.70
19803;DHT22;66074;50.764;6.090;2023-04-24T13:38:10;15.40;90.30
19803;DHT22;66074;50.764;6.090;2023-04-24T13:40:35;15.10;90.60
19803;DHT22;66074;50.764;6.090;2023-04-24T13:43:01;15.20;90.60
19803;DHT22;66074;50.764;6.090;2023-04-24T13:45:27;16.00;90.80
19803;DHT22;66074;50.764;6.090;2023-04-24T13:47:53;16.50;90.20
19803;DHT22;66074;50.764;6.090;2023-04-24T13:50:20;16.30;89.60
19803;DHT22;66074;50.764;6.090;2023-04-24T13:52:45;16.10;90.10
19803;DHT22;66074;50.764;6.090;2023-04-24T13:55:11;16.30;89.50
19803;DHT22;66074;50.764;6.090;2023-04-24T13:57:37;16.50;89.50
19803;DHT22;66074;50.764;6.090;2023-04-24T14:00:03;16.80;88.90
19803;DHT22;66074;50.764;6.090;2023-04-24T14:02:29;19.00;89.10
19803;DHT22;66074;50.764;6.090;2023-04-24T14:04:55;21.40;84.90
19803;DHT22;66074;50.764;6.090;2023-04-24T14:07:21;23.00;84.90
19803;DHT22;66074;50.764;6.090;2023-04-24T14:09:46;22.00;82.40
19803;DHT22;66074;50.764;6.090;2023-04-24T14:12:12;20.80;82.00
19803;DHT22;66074;50.764;6.090;2023-04-24T14:14:39;19.80;81.70
19803;DHT22;66074;50.764;6.090;2023-04-24T14:17:05;19.10;81.80
19803;DHT22;66074;50.764;6.090;2023-04-24T14:19:31;21.00;82.40
19803;DHT22;66074;50.764;6.090;2023-04-24T14:21:56;22.10;81.90
19803;DHT22;66074;50.764;6.090;2023-04-24T14:24:23;23.10;81.90
19803;DHT22;66074;50.764;6.090;2023-04-24T14:26:49;22.70;80.60
19803;DHT22;66074;50.764;6.090;2023-04-24T14:29:15;21.40;78.90
19803;DHT22;66074;50.764;6.090;2023-04-24T14:31:42;20.30;79.10
19803;DHT22;66074;50.764;6.090;2023-04-24T14:34:08;19.40;79.40
19803;DHT22;66074;50.764;6.090;2023-04-24T14:36:34;18.40;79.00
19803;DHT22;66074;50.764;6.090;2023-04-24T14:39:00;19.10;81.00
19803;DHT22;66074;50.764;6.090;2023-04-24T14:41:28;19.30;79.70
19803;DHT22;66074;50.764;6.090;2023-04-24T14:43:54;19.20;79.70
19803;DHT22;66074;50.764;6.090;2023-04-24T14:46:20;20.30;77.50
19803;DHT22;66074;50.764;6.090;2023-04-24T14:48:45;22.00;77.20
19803;DHT22;66074;50.764;6.090;2023-04-24T14:51:11;20.80;76.50
19803;DHT22;66074;50.764;6.090;2023-04-24T14:53:37;19.70;76.40
19803;DHT22;66074;50.764;6.090;2023-04-24T14:56:03;18.80;76.00
19803;DHT22;66074;50.764;6.090;2023-04-24T14:58:28;18.10;77.00
19803;DHT22;66074;50.764;6.090;2023-04-24T15:00:54;17.50;77.50
19803;DHT22;66074;50.764;6.090;2023-04-24T15:03:20;17.00;77.60
19803;DHT22;66074;50.764;6.090;2023-04-24T15:05:47;16.50;78.10
19803;DHT22;66074;50.764;6.090;2023-04-24T15:08:12;16.20;78.90
19803;DHT22;66074;50.764;6.090;2023-04-24T15:10:38;16.00;79.40
19803;DHT22;66074;50.764;6.090;2023-04-24T15:13:03;15.50;79.20
19803;DHT22;66074;50.764;6.090;2023-04-24T15:15:29;15.20;79.80
19803;DHT22;66074;50.764;6.090;2023-04-24T15:17:55;15.00;80.20
19803;DHT22;66074;50.764;6.090;2023-04-24T15:20:21;14.90;80.50
19803;DHT22;66074;50.764;6.090;2023-04-24T15:22:46;14.70;80.80
19803;DHT22;66074;50.764;6.090;2023-04-24T15:25:12;14.50;80.70
19803;DHT22;66074;50.764;6.090;2023-04-24T15:27:42;14.30;81.10
19803;DHT22;66074;50.764;6.090;2023-04-24T15:30:09;14.20;81.30
19803;DHT22;66074;50.764;6.090;2023-04-24T15:32:35;14.10;81.30
19803;DHT22;66074;50.764;6.090;2023-04-24T15:35:01;14.00;81.40
19803;DHT22;66074;50.764;6.090;2023-04-24T15:37:27;14.00;81.60
19803;DHT22;66074;50.764;6.090;2023-04-24T15:39:52;13.90;81.70
19803;DHT22;66074;50.764;6.090;2023-04-24T15:42:18;13.90;81.90
19803;DHT22;66074;50.764;6.090;2023-04-24T15:44:43;13.80;81.90